Time;durP1;ratioP1;P1;durP2;ratioP2;P2;SDS_P1;SDS_P2;PMS_P1;PMS_P2;Temp;Humidity;BMP_temperature;BMP_pressure;BME280_temperature;BME280_humidity;BME280_pressure;Samples;Min_cycle;Max_cycle;Signal;HPM_P1;HPM_P2
2023/06/25 00:02:07;;;;;;;17.90;13.03;;;;;;;;;;5072806;28;20450;-80
2023/06/25 00:04:35;;;;;;;19.20;13.70;;;;;;;;;;5073583;28;20443;-81
2023/06/25 00:07:02;;;;;;;16.17;12.00;;;;;;;;;;5085673;28;20445;-79
2023/06/25 00:09:29;;;;;;;14.47;12.97;;;;;;;;;;5080144;28;20498;-80
2023/06/25 00:11:55;;;;;;;19.40;14.40;;;;;;;;;;5073111;28;20490;-80
2023/06/25 00:14:21;;;;;;;18.00;13.50;;;;;;;;;;5080425;28;20447;-80
2023/06/25 00:16:48;;;;;;;15.53;13.40;;;;;;;;;;5081371;28;20491;-79
2023/06/25 00:19:18;;;;;;;14.70;11.97;;;;;;;;;;5082008;28;20446;-80
2023/06/25 00:21:44;;;;;;;17.70;14.30;;;;;;;;;;5073348;28;20470;-80
2023/06/25 00:24:11;;;;;;;14.30;11.70;;;;;;;;;;5082398;28;20455;-79
2023/06/25 00:26:37;;;;;;;15.07;11.53;;;;;;;;;;5073735;28;20470;-80
2023/06/25 00:29:04;;;;;;;15.10;12.23;;;;;;;;;;5067188;28;20471;-80
2023/06/25 00:31:30;;;;;;;14.70;12.10;;;;;;;;;;5081467;28;20475;-79
2023/06/25 00:33:56;;;;;;;18.57;12.77;;;;;;;;;;5081049;28;20832;-81
2023/06/25 00:36:24;;;;;;;15.00;12.20;;;;;;;;;;5080566;28;20992;-81
2023/06/25 00:38:51;;;;;;;13.60;11.40;;;;;;;;;;5092179;28;20493;-80
2023/06/25 00:41:18;;;;;;;14.90;12.80;;;;;;;;;;5082031;28;20471;-81
2023/06/25 00:43:44;;;;;;;15.97;13.07;;;;;;;;;;5087399;28;20461;-81
2023/06/25 00:46:13;;;;;;;14.90;13.40;;;;;;;;;;5072001;28;20895;-79
2023/06/25 00:48:45;;;;;;;13.90;12.43;;;;;;;;;;5086916;28;20466;-79
2023/06/25 00:51:12;;;;;;;16.03;14.30;;;;;;;;;;5083663;28;20477;-81
2023/06/25 00:53:40;;;;;;;17.07;13.17;;;;;;;;;;5079664;28;20496;-81
2023/06/25 00:56:06;;;;;;;17.43;15.13;;;;;;;;;;5073899;28;20471;-80
2023/06/25 00:58:34;;;;;;;16.93;14.10;;;;;;;;;;5077467;28;20573;-79
2023/06/25 01:01:01;;;;;;;18.43;14.13;;;;;;;;;;5088112;28;20967;-79
2023/06/25 01:03:29;;;;;;;16.10;13.97;;;;;;;;;;5087635;28;20537;-80
2023/06/25 01:05:58;;;;;;;18.40;13.60;;;;;;;;;;5078427;28;20469;-79
2023/06/25 01:08:28;;;;;;;14.53;11.90;;;;;;;;;;5073127;28;20474;-79
2023/06/25 01:10:56;;;;;;;16.93;13.30;;;;;;;;;;5070426;28;20895;-79
2023/06/25 01:13:22;;;;;;;16.10;12.83;;;;;;;;;;5064738;28;20449;-78
2023/06/25 01:15:49;;;;;;;16.73;12.30;;;;;;;;;;5076108;28;20533;-80
2023/06/25 01:18:15;;;;;;;13.33;11.90;;;;;;;;;;5089295;28;20947;-79
2023/06/25 01:20:41;;;;;;;13.43;11.03;;;;;;;;;;5093661;28;20474;-79
2023/06/25 01:23:10;;;;;;;13.67;12.13;;;;;;;;;;5082085;28;20439;-78
2023/06/25 01:25:38;;;;;;;17.70;12.50;;;;;;;;;;5077903;28;21059;-80
2023/06/25 01:28:05;;;;;;;15.07;11.00;;;;;;;;;;5079782;28;20464;-79
2023/06/25 01:30:33;;;;;;;18.83;12.37;;;;;;;;;;5076296;28;20478;-78
2023/06/25 01:32:59;;;;;;;16.23;13.10;;;;;;;;;;5083697;28;20450;-79
2023/06/25 01:35:26;;;;;;;13.20;10.97;;;;;;;;;;5076145;28;20475;-78
2023/06/25 01:37:53;;;;;;;13.87;10.93;;;;;;;;;;5091977;28;20983;-81
2023/06/25 01:40:21;;;;;;;13.30;11.43;;;;;;;;;;5083779;28;21004;-79
2023/06/25 01:42:47;;;;;;;17.90;10.97;;;;;;;;;;5081333;28;20445;-78
2023/06/25 01:45:14;;;;;;;13.60;11.27;;;;;;;;;;5083762;28;20471;-79
2023/06/25 01:47:41;;;;;;;14.27;11.73;;;;;;;;;;5073787;28;20473;-79
2023/06/25 01:50:08;;;;;;;12.17;10.70;;;;;;;;;;5083993;28;20922;-79
2023/06/25 01:52:35;;;;;;;14.40;11.57;;;;;;;;;;5087409;28;20820;-79
2023/06/25 01:55:01;;;;;;;13.97;10.73;;;;;;;;;;5064973;28;20471;-80
2023/06/25 01:57:29;;;;;;;17.60;11.47;;;;;;;;;;5075802;28;20485;-80
2023/06/25 01:59:55;;;;;;;14.70;11.13;;;;;;;;;;5084494;28;20465;-79
2023/06/25 02:02:21;;;;;;;21.53;11.80;;;;;;;;;;5089052;28;20453;-79
2023/06/25 02:04:48;;;;;;;20.23;12.33;;;;;;;;;;5079733;28;20843;-80
2023/06/25 02:07:14;;;;;;;26.20;11.23;;;;;;;;;;5087383;28;20470;-80
2023/06/25 02:09:40;;;;;;;14.57;11.23;;;;;;;;;;5077280;28;20442;-81
2023/06/25 02:12:07;;;;;;;14.90;11.03;;;;;;;;;;5088233;28;20504;-80
2023/06/25 02:14:36;;;;;;;16.43;13.43;;;;;;;;;;5076293;28;20443;-81
2023/06/25 02:17:02;;;;;;;14.70;13.20;;;;;;;;;;5076179;28;20504;-80
2023/06/25 02:19:29;;;;;;;16.90;12.50;;;;;;;;;;5085623;28;20815;-80
2023/06/25 02:21:55;;;;;;;15.83;12.53;;;;;;;;;;5087214;28;20818;-80
2023/06/25 02:24:22;;;;;;;15.57;12.57;;;;;;;;;;5084779;28;20443;-80
2023/06/25 02:26:51;;;;;;;16.87;11.60;;;;;;;;;;5083650;28;20481;-80
2023/06/25 02:29:17;;;;;;;21.50;11.80;;;;;;;;;;5081332;28;20449;-80
2023/06/25 02:31:45;;;;;;;26.37;11.60;;;;;;;;;;5080543;28;20478;-80
2023/06/25 02:34:12;;;;;;;18.33;11.83;;;;;;;;;;5087358;28;20958;-80
2023/06/25 02:36:38;;;;;;;15.53;10.53;;;;;;;;;;5081217;28;20479;-80
2023/06/25 02:39:04;;;;;;;19.60;11.80;;;;;;;;;;5080065;28;20474;-80
2023/06/25 02:41:31;;;;;;;16.87;11.27;;;;;;;;;;5076173;28;20474;-80
2023/06/25 02:43:57;;;;;;;16.60;10.83;;;;;;;;;;5082462;28;20453;-80
2023/06/25 02:46:24;;;;;;;18.33;11.83;;;;;;;;;;5080746;28;20470;-80
2023/06/25 02:48:51;;;;;;;17.27;11.50;;;;;;;;;;5081626;28;20498;-79
2023/06/25 02:51:18;;;;;;;19.90;10.63;;;;;;;;;;5073743;28;20475;-79
2023/06/25 02:53:44;;;;;;;19.60;12.17;;;;;;;;;;5076882;28;20454;-80
2023/06/25 02:56:10;;;;;;;19.30;12.77;;;;;;;;;;5080747;28;21000;-79
2023/06/25 02:58:37;;;;;;;22.60;12.60;;;;;;;;;;5093052;28;20975;-80
2023/06/25 03:01:03;;;;;;;21.73;11.57;;;;;;;;;;5082380;28;20470;-79
2023/06/25 03:03:30;;;;;;;24.03;11.27;;;;;;;;;;5085922;28;20525;-80
2023/06/25 03:05:57;;;;;;;19.03;11.90;;;;;;;;;;5086784;28;20474;-80
2023/06/25 03:08:24;;;;;;;31.10;12.20;;;;;;;;;;5081815;28;20537;-80
2023/06/25 03:10:51;;;;;;;19.73;11.73;;;;;;;;;;5079116;28;20562;-80
2023/06/25 03:13:17;;;;;;;19.83;11.70;;;;;;;;;;5084998;28;20485;-80
2023/06/25 03:15:43;;;;;;;19.23;12.43;;;;;;;;;;5075079;28;20478;-79
2023/06/25 03:18:10;;;;;;;17.67;11.60;;;;;;;;;;5094736;28;20831;-80
2023/06/25 03:20:36;;;;;;;18.10;10.83;;;;;;;;;;5076893;28;20490;-80
2023/06/25 03:23:04;;;;;;;16.37;10.77;;;;;;;;;;5076164;28;20432;-80
2023/06/25 03:25:31;;;;;;;14.30;12.00;;;;;;;;;;5077242;28;20483;-80
2023/06/25 03:27:57;;;;;;;22.53;11.37;;;;;;;;;;5083497;28;20462;-79
2023/06/25 03:30:23;;;;;;;15.53;11.03;;;;;;;;;;5076652;28;20471;-80
2023/06/25 03:32:51;;;;;;;20.33;12.10;;;;;;;;;;5083231;28;20426;-80
2023/06/25 03:35:18;;;;;;;14.50;10.90;;;;;;;;;;5081303;28;20482;-80
2023/06/25 03:37:44;;;;;;;18.83;10.93;;;;;;;;;;5079025;28;20459;-80
2023/06/25 03:40:14;;;;;;;28.63;12.63;;;;;;;;;;5083556;28;20466;-80
2023/06/25 03:42:40;;;;;;;20.00;10.97;;;;;;;;;;5061620;28;20504;-80
2023/06/25 03:45:08;;;;;;;22.10;11.30;;;;;;;;;;5055759;28;20892;-80
2023/06/25 03:47:35;;;;;;;21.03;11.93;;;;;;;;;;5083582;28;20494;-79
2023/06/25 03:50:01;;;;;;;21.47;12.43;;;;;;;;;;5092443;28;21029;-80
2023/06/25 03:52:27;;;;;;;22.30;10.90;;;;;;;;;;5069215;28;20485;-80
2023/06/25 03:54:53;;;;;;;19.03;11.67;;;;;;;;;;5077258;28;20451;-80
2023/06/25 03:57:23;;;;;;;17.50;12.43;;;;;;;;;;5080023;28;20471;-79
2023/06/25 03:59:49;;;;;;;17.17;11.00;;;;;;;;;;5076600;28;20526;-79
2023/06/25 04:02:15;;;;;;;15.53;10.63;;;;;;;;;;5079005;28;20443;-79
2023/06/25 04:04:42;;;;;;;13.80;11.27;;;;;;;;;;5075191;28;20449;-80
2023/06/25 04:07:08;;;;;;;18.80;10.47;;;;;;;;;;5084194;28;20447;-79
2023/06/25 04:09:35;;;;;;;14.57;10.10;;;;;;;;;;5078636;28;20420;-80
2023/06/25 04:12:01;;;;;;;15.53;12.20;;;;;;;;;;5065295;28;20528;-80
2023/06/25 04:14:29;;;;;;;13.33;10.97;;;;;;;;;;5073454;28;20446;-80
2023/06/25 04:16:55;;;;;;;15.27;12.33;;;;;;;;;;5065151;28;20468;-79
2023/06/25 04:19:22;;;;;;;16.10;11.83;;;;;;;;;;5076759;28;20509;-79
2023/06/25 04:21:49;;;;;;;15.37;12.63;;;;;;;;;;5087405;28;20479;-80
2023/06/25 04:24:15;;;;;;;16.80;13.00;;;;;;;;;;5083648;28;20445;-80
2023/06/25 04:26:41;;;;;;;15.10;11.43;;;;;;;;;;5085713;28;20449;-80
2023/06/25 04:29:08;;;;;;;17.63;11.70;;;;;;;;;;5074502;28;20483;-79
2023/06/25 04:31:36;;;;;;;12.50;11.20;;;;;;;;;;5074278;28;20479;-80
2023/06/25 04:34:03;;;;;;;15.13;12.10;;;;;;;;;;5073223;28;20458;-80
2023/06/25 04:36:30;;;;;;;15.73;11.50;;;;;;;;;;5081269;28;20474;-79
2023/06/25 04:38:56;;;;;;;13.97;12.47;;;;;;;;;;5074742;28;20470;-79
2023/06/25 04:41:23;;;;;;;15.90;13.33;;;;;;;;;;5081756;28;20500;-80
2023/06/25 04:43:49;;;;;;;14.47;12.53;;;;;;;;;;5079842;28;20898;-80
2023/06/25 04:46:15;;;;;;;17.60;14.20;;;;;;;;;;5076788;28;20466;-80
2023/06/25 04:48:46;;;;;;;13.97;12.57;;;;;;;;;;5077230;28;20465;-80
2023/06/25 04:51:12;;;;;;;17.10;13.33;;;;;;;;;;5082534;28;21069;-79
2023/06/25 04:53:38;;;;;;;17.77;13.70;;;;;;;;;;5082928;28;20445;-80
2023/06/25 04:56:05;;;;;;;19.40;13.87;;;;;;;;;;5079098;28;20478;-80
2023/06/25 04:58:32;;;;;;;15.00;13.10;;;;;;;;;;5079877;28;20497;-79
2023/06/25 05:00:58;;;;;;;15.77;14.07;;;;;;;;;;5075308;28;20470;-80
2023/06/25 05:03:24;;;;;;;17.93;13.83;;;;;;;;;;5076075;28;20446;-80
2023/06/25 05:05:52;;;;;;;18.40;14.10;;;;;;;;;;5074780;28;20471;-79
2023/06/25 05:08:19;;;;;;;18.23;14.03;;;;;;;;;;5087908;28;20457;-79
2023/06/25 05:10:45;;;;;;;19.63;14.70;;;;;;;;;;5083353;28;20551;-79
2023/06/25 05:13:13;;;;;;;23.50;13.23;;;;;;;;;;5078931;28;20823;-79
2023/06/25 05:15:41;;;;;;;17.50;14.50;;;;;;;;;;5070541;28;20462;-80
2023/06/25 05:18:08;;;;;;;21.27;14.90;;;;;;;;;;5078375;28;20466;-80
2023/06/25 05:20:35;;;;;;;17.03;14.47;;;;;;;;;;5071936;28;20877;-79
2023/06/25 05:23:04;;;;;;;22.40;15.77;;;;;;;;;;5071515;28;20462;-80
2023/06/25 05:25:30;;;;;;;18.40;13.87;;;;;;;;;;5081545;28;20847;-79
2023/06/25 05:27:57;;;;;;;20.57;14.57;;;;;;;;;;5074012;28;20866;-79
2023/06/25 05:30:23;;;;;;;19.67;13.50;;;;;;;;;;5066535;28;20485;-80
2023/06/25 05:32:49;;;;;;;20.10;14.30;;;;;;;;;;5069087;28;20483;-80
2023/06/25 05:35:16;;;;;;;17.73;12.80;;;;;;;;;;5075710;28;20470;-80
2023/06/25 05:37:42;;;;;;;18.43;13.53;;;;;;;;;;5083939;28;20484;-80
2023/06/25 05:40:11;;;;;;;15.37;12.47;;;;;;;;;;5080074;28;20466;-80
2023/06/25 05:42:37;;;;;;;20.00;14.90;;;;;;;;;;5085568;28;20459;-80
2023/06/25 05:45:04;;;;;;;18.57;13.83;;;;;;;;;;5076789;28;20462;-80
2023/06/25 05:47:30;;;;;;;18.03;13.40;;;;;;;;;;5087745;28;20473;-80
2023/06/25 05:49:57;;;;;;;19.10;12.20;;;;;;;;;;5081435;28;20537;-78
2023/06/25 05:52:23;;;;;;;16.43;12.97;;;;;;;;;;5075538;28;20483;-78
2023/06/25 05:54:49;;;;;;;17.47;12.60;;;;;;;;;;5079016;28;20458;-79
2023/06/25 05:57:17;;;;;;;15.80;13.30;;;;;;;;;;5086103;28;20473;-78
2023/06/25 05:59:43;;;;;;;14.73;12.73;;;;;;;;;;5083144;28;21029;-79
2023/06/25 06:02:10;;;;;;;18.63;11.70;;;;;;;;;;5075777;28;20812;-79
2023/06/25 06:04:37;;;;;;;17.03;11.90;;;;;;;;;;5074337;28;20442;-79
2023/06/25 06:07:03;;;;;;;15.47;10.90;;;;;;;;;;5075332;28;21058;-78
2023/06/25 06:09:30;;;;;;;14.30;10.80;;;;;;;;;;5079919;28;20450;-81
2023/06/25 06:11:56;;;;;;;13.43;11.07;;;;;;;;;;5067580;28;20485;-79
2023/06/25 06:14:24;;;;;;;12.67;11.43;;;;;;;;;;5079680;28;20447;-78
2023/06/25 06:16:51;;;;;;;12.50;9.73;;;;;;;;;;5083231;28;20478;-78
2023/06/25 06:19:17;;;;;;;12.50;9.57;;;;;;;;;;5082526;28;20450;-79
2023/06/25 06:21:44;;;;;;;12.07;9.20;;;;;;;;;;5092038;28;20466;-79
2023/06/25 06:24:10;;;;;;;13.77;10.17;;;;;;;;;;5077620;28;20561;-78
2023/06/25 06:26:36;;;;;;;13.37;10.80;;;;;;;;;;5089792;28;21030;-79
2023/06/25 06:29:03;;;;;;;11.40;8.53;;;;;;;;;;5085606;28;20466;-79
2023/06/25 06:31:31;;;;;;;16.53;9.17;;;;;;;;;;5079449;28;20566;-78
2023/06/25 06:33:58;;;;;;;9.43;8.00;;;;;;;;;;5085132;28;20446;-78
2023/06/25 06:36:24;;;;;;;13.07;9.60;;;;;;;;;;5080607;28;20462;-78
2023/06/25 06:38:51;;;;;;;11.23;9.50;;;;;;;;;;5084096;28;20483;-79
2023/06/25 06:41:17;;;;;;;9.50;8.50;;;;;;;;;;5076417;28;20464;-79
2023/06/25 06:43:44;;;;;;;10.43;9.37;;;;;;;;;;5084411;28;20454;-79
2023/06/25 06:46:10;;;;;;;10.80;8.47;;;;;;;;;;5073353;28;20475;-78
2023/06/25 06:48:38;;;;;;;10.73;8.77;;;;;;;;;;5078558;28;20466;-78
2023/06/25 06:51:05;;;;;;;8.47;7.63;;;;;;;;;;5079542;28;20462;-78
2023/06/25 06:53:33;;;;;;;10.17;8.20;;;;;;;;;;5080185;28;20474;-79
2023/06/25 06:55:59;;;;;;;15.20;9.40;;;;;;;;;;5082840;28;20466;-79
2023/06/25 06:58:25;;;;;;;8.00;7.20;;;;;;;;;;5075249;28;21006;-79
2023/06/25 07:00:52;;;;;;;12.07;9.53;;;;;;;;;;5071212;28;20466;-79
2023/06/25 07:03:18;;;;;;;10.57;8.93;;;;;;;;;;5087892;28;20450;-79
2023/06/25 07:05:46;;;;;;;10.40;8.47;;;;;;;;;;5081209;28;20477;-79
2023/06/25 07:08:13;;;;;;;12.30;7.93;;;;;;;;;;5070116;28;20468;-79
2023/06/25 07:10:39;;;;;;;8.03;7.23;;;;;;;;;;5071351;28;20992;-78
2023/06/25 07:13:06;;;;;;;8.43;7.17;;;;;;;;;;5082016;28;20497;-78
2023/06/25 07:15:32;;;;;;;11.40;10.20;;;;;;;;;;5081825;28;20470;-79
2023/06/25 07:17:58;;;;;;;12.50;10.47;;;;;;;;;;5073340;28;20475;-79
2023/06/25 07:20:25;;;;;;;11.67;9.63;;;;;;;;;;5082568;28;20466;-79
2023/06/25 07:22:52;;;;;;;13.37;11.97;;;;;;;;;;5076775;28;20487;-78
2023/06/25 07:25:19;;;;;;;14.87;10.20;;;;;;;;;;5080213;28;20843;-79
2023/06/25 07:27:45;;;;;;;12.37;10.70;;;;;;;;;;5087024;28;20825;-79
2023/06/25 07:30:12;;;;;;;13.33;11.93;;;;;;;;;;5075225;28;20468;-79
2023/06/25 07:32:38;;;;;;;14.00;11.20;;;;;;;;;;5074381;28;20482;-79
2023/06/25 07:35:05;;;;;;;15.77;11.10;;;;;;;;;;5077202;28;20558;-79
2023/06/25 07:37:31;;;;;;;16.43;11.57;;;;;;;;;;5083632;28;20481;-80
2023/06/25 07:39:59;;;;;;;22.07;11.77;;;;;;;;;;5083135;28;20474;-80
2023/06/25 07:42:25;;;;;;;15.23;12.97;;;;;;;;;;5076467;28;20446;-80
2023/06/25 07:44:52;;;;;;;13.53;11.50;;;;;;;;;;5078234;28;20439;-80
2023/06/25 07:47:18;;;;;;;14.60;11.33;;;;;;;;;;5084074;28;20466;-80
2023/06/25 07:49:44;;;;;;;13.10;10.80;;;;;;;;;;5087731;28;20920;-80
2023/06/25 07:52:11;;;;;;;13.47;12.03;;;;;;;;;;5085419;28;20483;-80
2023/06/25 07:54:37;;;;;;;16.17;11.57;;;;;;;;;;5079059;28;20519;-81
2023/06/25 07:57:06;;;;;;;13.00;10.70;;;;;;;;;;5094598;28;20442;-81
2023/06/25 07:59:32;;;;;;;15.43;13.23;;;;;;;;;;5078358;28;20952;-81
2023/06/25 08:01:58;;;;;;;13.00;11.50;;;;;;;;;;5079518;28;20516;-81
2023/06/25 08:04:25;;;;;;;13.20;11.03;;;;;;;;;;5075932;28;20435;-81
2023/06/25 08:06:51;;;;;;;12.07;10.73;;;;;;;;;;5075902;28;20466;-81
2023/06/25 08:09:18;;;;;;;12.17;10.73;;;;;;;;;;5081472;28;20438;-81
2023/06/25 08:11:44;;;;;;;12.10;10.57;;;;;;;;;;5079075;28;20466;-81
2023/06/25 08:14:12;;;;;;;12.50;10.43;;;;;;;;;;5086840;28;20465;-81
2023/06/25 08:16:38;;;;;;;12.47;10.43;;;;;;;;;;5085575;28;20470;-81
2023/06/25 08:19:05;;;;;;;10.90;9.80;;;;;;;;;;5094189;28;20465;-80
2023/06/25 08:21:31;;;;;;;11.80;10.07;;;;;;;;;;5080074;28;20475;-80
2023/06/25 08:23:57;;;;;;;12.43;11.10;;;;;;;;;;5086783;28;20431;-81
2023/06/25 08:26:24;;;;;;;12.70;10.47;;;;;;;;;;5080360;28;20486;-81
2023/06/25 08:28:52;;;;;;;12.37;10.37;;;;;;;;;;5090181;28;20996;-82
2023/06/25 08:31:20;;;;;;;13.47;11.10;;;;;;;;;;5078901;28;20467;-81
2023/06/25 08:33:47;;;;;;;10.37;9.07;;;;;;;;;;5091523;28;20490;-80
2023/06/25 08:36:14;;;;;;;11.10;9.77;;;;;;;;;;5090792;28;20470;-80
2023/06/25 08:38:40;;;;;;;10.10;9.00;;;;;;;;;;5074314;28;20454;-80
2023/06/25 08:41:06;;;;;;;11.17;10.07;;;;;;;;;;5071408;28;20466;-81
2023/06/25 08:43:33;;;;;;;10.30;9.30;;;;;;;;;;5073219;28;20451;-81
2023/06/25 08:45:59;;;;;;;9.50;8.50;;;;;;;;;;5079223;28;20835;-81
2023/06/25 08:48:28;;;;;;;10.60;9.60;;;;;;;;;;5072596;28;20478;-81
2023/06/25 08:50:56;;;;;;;10.77;9.53;;;;;;;;;;5074349;28;20475;-81
2023/06/25 08:53:25;;;;;;;8.90;8.10;;;;;;;;;;5057321;28;20480;-81
2023/06/25 08:55:52;;;;;;;9.80;8.80;;;;;;;;;;5091111;28;20465;-80
2023/06/25 08:58:20;;;;;;;9.60;8.37;;;;;;;;;;5072877;28;20490;-81
2023/06/25 09:00:47;;;;;;;9.43;8.43;;;;;;;;;;5076208;28;20519;-80
2023/06/25 09:03:13;;;;;;;9.60;8.60;;;;;;;;;;5088491;28;20453;-81
2023/06/25 09:05:50;;;;;;;8.77;7.87;;;;;;;;;;5074866;28;20470;-81
2023/06/25 09:08:17;;;;;;;17.43;9.00;;;;;;;;;;5078712;28;20475;-81
2023/06/25 09:10:43;;;;;;;9.40;8.50;;;;;;;;;;5077260;28;20466;-81
2023/06/25 09:13:10;;;;;;;10.43;9.17;;;;;;;;;;5085953;28;20486;-81
2023/06/25 09:15:42;;;;;;;9.43;8.63;;;;;;;;;;5091570;28;20474;-80
2023/06/25 09:18:08;;;;;;;9.53;8.73;;;;;;;;;;5077613;28;20473;-80
2023/06/25 09:20:35;;;;;;;9.50;8.70;;;;;;;;;;5089403;28;20484;-81
2023/06/25 09:23:04;;;;;;;12.43;11.10;;;;;;;;;;5097198;28;20434;-81
2023/06/25 09:25:31;;;;;;;10.13;9.23;;;;;;;;;;5081472;28;20466;-80
2023/06/25 09:27:58;;;;;;;10.80;9.80;;;;;;;;;;5098479;28;20488;-79
2023/06/25 09:30:24;;;;;;;9.80;8.80;;;;;;;;;;5087754;28;20861;-79
2023/06/25 09:32:52;;;;;;;10.87;9.97;;;;;;;;;;5083292;28;20474;-82
2023/06/25 09:35:20;;;;;;;10.60;9.60;;;;;;;;;;5090300;28;20993;-81
2023/06/25 09:37:47;;;;;;;10.13;9.23;;;;;;;;;;5088300;28;20467;-81
2023/06/25 09:40:15;;;;;;;10.43;9.60;;;;;;;;;;5087702;28;20462;-81
2023/06/25 09:42:42;;;;;;;9.60;8.70;;;;;;;;;;5091041;28;20462;-81
2023/06/25 09:45:10;;;;;;;10.67;9.77;;;;;;;;;;5095896;28;20993;-80
2023/06/25 09:47:37;;;;;;;11.27;10.17;;;;;;;;;;5088800;28;20470;-82
2023/06/25 09:50:06;;;;;;;10.10;9.17;;;;;;;;;;5091535;28;20489;-81
2023/06/25 09:52:33;;;;;;;11.00;10.10;;;;;;;;;;5076550;28;20443;-82
2023/06/25 09:55:00;;;;;;;11.03;10.03;;;;;;;;;;5081671;28;20549;-81
2023/06/25 09:57:28;;;;;;;10.67;9.70;;;;;;;;;;5090332;28;20509;-82
2023/06/25 09:59:55;;;;;;;10.83;9.83;;;;;;;;;;5076900;28;20458;-81
2023/06/25 10:02:21;;;;;;;9.70;8.87;;;;;;;;;;5075972;28;20447;-80
2023/06/25 10:04:49;;;;;;;9.50;8.60;;;;;;;;;;5080139;28;20912;-81
2023/06/25 10:07:15;;;;;;;11.50;10.40;;;;;;;;;;5077285;28;20512;-81
2023/06/25 10:09:51;;;;;;;9.03;8.33;;;;;;;;;;5087016;28;20461;-79
2023/06/25 10:12:19;;;;;;;10.47;9.20;;;;;;;;;;5079844;28;20451;-81
2023/06/25 10:14:47;;;;;;;10.50;9.70;;;;;;;;;;5087165;28;20485;-81
2023/06/25 10:17:14;;;;;;;10.50;9.30;;;;;;;;;;5089757;28;20479;-81
2023/06/25 10:19:51;;;;;;;11.00;10.00;;;;;;;;;;5095200;28;20446;-82
2023/06/25 10:22:21;;;;;;;10.93;9.83;;;;;;;;;;5085415;28;20541;-81
2023/06/25 10:24:49;;;;;;;10.80;9.73;;;;;;;;;;5082212;28;20442;-81
2023/06/25 10:27:28;;;;;;;8.90;8.20;;;;;;;;;;5080651;28;20496;-82
2023/06/25 10:29:57;;;;;;;10.27;9.27;;;;;;;;;;5081016;28;20462;-82
2023/06/25 10:32:24;;;;;;;9.17;8.27;;;;;;;;;;5074725;28;20442;-81
2023/06/25 10:34:54;;;;;;;10.23;8.90;;;;;;;;;;5080983;28;20481;-80
2023/06/25 10:37:20;;;;;;;9.67;8.87;;;;;;;;;;5084876;28;20470;-80
2023/06/25 10:39:47;;;;;;;9.00;8.20;;;;;;;;;;5088354;28;20529;-81
2023/06/25 10:42:14;;;;;;;9.00;8.20;;;;;;;;;;5081190;28;20512;-80
2023/06/25 10:44:40;;;;;;;9.77;8.40;;;;;;;;;;5081263;28;20508;-80
2023/06/25 10:47:10;;;;;;;9.10;8.20;;;;;;;;;;5094026;28;20634;-81
2023/06/25 10:49:38;;;;;;;10.50;9.60;;;;;;;;;;5063775;28;20450;-81
2023/06/25 10:52:05;;;;;;;9.30;8.50;;;;;;;;;;5087136;28;20506;-79
2023/06/25 10:54:32;;;;;;;9.17;8.27;;;;;;;;;;5085580;28;20477;-80
2023/06/25 10:57:05;;;;;;;10.53;9.53;;;;;;;;;;5084319;28;20497;-81
2023/06/25 10:59:32;;;;;;;9.17;8.27;;;;;;;;;;5089474;28;20446;-81
2023/06/25 11:02:09;;;;;;;10.13;8.90;;;;;;;;;;5087096;28;20455;-80
2023/06/25 11:04:37;;;;;;;9.87;8.97;;;;;;;;;;5083736;28;20446;-80
2023/06/25 11:07:03;;;;;;;9.27;7.93;;;;;;;;;;5090338;28;20450;-80
2023/06/25 11:09:30;;;;;;;9.60;8.23;;;;;;;;;;5079986;28;20481;-81
2023/06/25 11:11:56;;;;;;;8.20;7.50;;;;;;;;;;5085734;28;20462;-80
2023/06/25 11:14:24;;;;;;;9.00;8.20;;;;;;;;;;5079084;28;20547;-79
2023/06/25 11:16:50;;;;;;;9.90;9.00;;;;;;;;;;5085236;28;20474;-80
2023/06/25 11:19:18;;;;;;;8.90;8.10;;;;;;;;;;5079975;28;20457;-79
2023/06/25 11:21:46;;;;;;;9.87;8.83;;;;;;;;;;5083827;28;20471;-81
2023/06/25 11:24:14;;;;;;;9.13;8.13;;;;;;;;;;5082895;28;20446;-80
2023/06/25 11:26:42;;;;;;;9.13;8.33;;;;;;;;;;5081515;28;20472;-78
2023/06/25 11:29:09;;;;;;;9.10;8.40;;;;;;;;;;5089981;28;20474;-80
2023/06/25 11:31:42;;;;;;;9.03;8.27;;;;;;;;;;5078277;28;20475;-80
2023/06/25 11:34:10;;;;;;;9.07;8.27;;;;;;;;;;5082782;28;20506;-80
2023/06/25 11:36:37;;;;;;;8.90;8.10;;;;;;;;;;5083515;28;20466;-80
2023/06/25 11:39:07;;;;;;;9.20;8.40;;;;;;;;;;5086964;28;20814;-81
2023/06/25 11:41:33;;;;;;;9.20;8.40;;;;;;;;;;5083923;28;20481;-81
2023/06/25 11:43:59;;;;;;;8.23;7.50;;;;;;;;;;5075352;28;20439;-79
2023/06/25 11:46:26;;;;;;;11.00;8.50;;;;;;;;;;5068287;28;20468;-79
2023/06/25 11:48:52;;;;;;;8.93;8.13;;;;;;;;;;5082310;28;20474;-80
2023/06/25 11:51:19;;;;;;;9.07;8.23;;;;;;;;;;5060489;28;21008;-80
2023/06/25 11:53:45;;;;;;;9.40;8.40;;;;;;;;;;5075573;28;20482;-80
2023/06/25 11:56:13;;;;;;;8.83;8.10;;;;;;;;;;5075351;28;20467;-80
2023/06/25 11:58:39;;;;;;;8.77;8.07;;;;;;;;;;5081377;28;20851;-80
2023/06/25 12:01:07;;;;;;;8.40;7.70;;;;;;;;;;5086184;28;20475;-80
2023/06/25 12:03:34;;;;;;;9.17;8.40;;;;;;;;;;5085599;28;20491;-80
2023/06/25 12:06:01;;;;;;;8.87;8.07;;;;;;;;;;5082068;28;20473;-80
2023/06/25 12:08:27;;;;;;;8.43;7.73;;;;;;;;;;5078862;28;20470;-80
2023/06/25 12:10:54;;;;;;;9.13;8.33;;;;;;;;;;5090179;28;20469;-79
2023/06/25 12:13:21;;;;;;;8.60;7.90;;;;;;;;;;5087256;28;20447;-81
2023/06/25 12:15:48;;;;;;;9.83;8.37;;;;;;;;;;5092185;28;20850;-77
2023/06/25 12:18:14;;;;;;;9.50;8.37;;;;;;;;;;5091385;28;20473;-78
2023/06/25 12:20:41;;;;;;;8.33;7.40;;;;;;;;;;5084443;28;20473;-81
2023/06/25 12:23:07;;;;;;;8.80;8.00;;;;;;;;;;5077853;28;20947;-80
2023/06/25 12:25:33;;;;;;;8.17;7.50;;;;;;;;;;5079685;28;20462;-78
2023/06/25 12:28:00;;;;;;;7.70;7.10;;;;;;;;;;5095750;28;20466;-80
2023/06/25 12:30:28;;;;;;;8.97;8.17;;;;;;;;;;5088874;28;20839;-80
2023/06/25 12:32:54;;;;;;;8.13;7.40;;;;;;;;;;5079565;28;20450;-79
2023/06/25 12:35:21;;;;;;;9.27;8.43;;;;;;;;;;5079530;28;20579;-80
2023/06/25 12:37:48;;;;;;;8.10;7.30;;;;;;;;;;5080802;28;20489;-83
2023/06/25 12:40:14;;;;;;;9.17;8.37;;;;;;;;;;5090263;28;20469;-80
2023/06/25 12:42:40;;;;;;;9.53;8.40;;;;;;;;;;5089611;28;20450;-81
2023/06/25 12:45:07;;;;;;;8.00;7.27;;;;;;;;;;5083932;28;20466;-80
2023/06/25 12:47:36;;;;;;;8.37;7.67;;;;;;;;;;5093108;28;20473;-79
2023/06/25 12:50:04;;;;;;;7.67;7.00;;;;;;;;;;5079145;28;20467;-79
2023/06/25 12:52:31;;;;;;;8.13;7.43;;;;;;;;;;5080910;28;20450;-81
2023/06/25 12:54:58;;;;;;;8.87;8.00;;;;;;;;;;5084730;28;20458;-80
2023/06/25 12:57:24;;;;;;;8.57;7.77;;;;;;;;;;5076148;28;20490;-80
2023/06/25 12:59:51;;;;;;;8.87;7.03;;;;;;;;;;5075662;28;21001;-80
2023/06/25 13:02:17;;;;;;;8.70;8.00;;;;;;;;;;5067722;28;20450;-80
2023/06/25 13:04:46;;;;;;;7.70;7.03;;;;;;;;;;5071260;28;20451;-79
2023/06/25 13:07:13;;;;;;;8.30;7.60;;;;;;;;;;5088216;28;20467;-80
2023/06/25 13:09:39;;;;;;;8.10;7.40;;;;;;;;;;5074571;28;20963;-81
2023/06/25 13:12:06;;;;;;;8.70;7.27;;;;;;;;;;5067280;28;20486;-80
2023/06/25 13:14:32;;;;;;;8.20;7.40;;;;;;;;;;5071389;28;20478;-80
2023/06/25 13:16:58;;;;;;;7.87;7.27;;;;;;;;;;5075503;28;20470;-80
2023/06/25 13:19:25;;;;;;;8.53;7.83;;;;;;;;;;5092478;28;20449;-80
2023/06/25 13:21:53;;;;;;;11.03;8.10;;;;;;;;;;5076751;28;20475;-80
2023/06/25 13:24:19;;;;;;;7.57;6.87;;;;;;;;;;5076408;28;20830;-81
2023/06/25 13:26:46;;;;;;;8.27;7.57;;;;;;;;;;5074940;28;20470;-80
2023/06/25 13:29:13;;;;;;;7.87;7.27;;;;;;;;;;5080039;28;20471;-80
2023/06/25 13:31:39;;;;;;;8.80;8.00;;;;;;;;;;5088151;28;20474;-80
2023/06/25 13:34:05;;;;;;;8.60;7.80;;;;;;;;;;5080207;28;20475;-80
2023/06/25 13:36:32;;;;;;;7.87;7.17;;;;;;;;;;5081126;28;20471;-80
2023/06/25 13:38:59;;;;;;;8.10;7.30;;;;;;;;;;5080207;28;20537;-79
2023/06/25 13:41:26;;;;;;;9.03;8.23;;;;;;;;;;5067552;28;20474;-80
2023/06/25 13:43:52;;;;;;;8.97;8.07;;;;;;;;;;5082831;28;20438;-80
2023/06/25 13:46:18;;;;;;;8.40;7.70;;;;;;;;;;5087967;28;20465;-81
2023/06/25 13:48:45;;;;;;;8.40;7.70;;;;;;;;;;5086725;28;20508;-82
2023/06/25 13:51:11;;;;;;;8.07;7.27;;;;;;;;;;5083371;28;20474;-81
2023/06/25 13:53:37;;;;;;;7.73;7.03;;;;;;;;;;5079320;28;20960;-82
2023/06/25 13:56:05;;;;;;;7.90;7.20;;;;;;;;;;5086415;28;20467;-81
2023/06/25 13:58:32;;;;;;;8.03;7.33;;;;;;;;;;5091038;28;20824;-80
2023/06/25 14:00:58;;;;;;;8.43;7.50;;;;;;;;;;5067895;28;20537;-80
2023/06/25 14:03:24;;;;;;;6.83;6.33;;;;;;;;;;5075274;28;20450;-82
2023/06/25 14:05:51;;;;;;;8.23;7.43;;;;;;;;;;5075589;28;20463;-82
2023/06/25 14:08:17;;;;;;;9.50;7.90;;;;;;;;;;5084125;28;20472;-81
2023/06/25 14:10:44;;;;;;;7.80;7.20;;;;;;;;;;5079167;28;20467;-82
2023/06/25 14:13:11;;;;;;;8.03;7.30;;;;;;;;;;5084832;28;20461;-81
2023/06/25 14:15:38;;;;;;;8.07;7.33;;;;;;;;;;5084994;28;20471;-81
2023/06/25 14:18:04;;;;;;;7.10;6.50;;;;;;;;;;5084620;28;20540;-82
2023/06/25 14:20:30;;;;;;;8.10;7.30;;;;;;;;;;5095026;28;20466;-80
2023/06/25 14:22:58;;;;;;;7.63;6.97;;;;;;;;;;5091363;28;20447;-81
2023/06/25 14:25:24;;;;;;;7.37;6.77;;;;;;;;;;5079150;28;20475;-81